createdAt,value
2018-07-09T00:02:34.019Z,5.63
2018-07-09T00:05:08.357Z,4.67
2018-07-09T00:07:42.695Z,6.13
2018-07-09T00:10:28.491Z,4.77
2018-07-09T00:13:02.783Z,8.00
2018-07-09T00:15:37.105Z,4.27
2018-07-09T00:18:11.597Z,4.40
2018-07-09T00:20:45.993Z,7.70
2018-07-09T00:23:20.391Z,6.90
2018-07-09T00:25:55.349Z,5.83
2018-07-09T00:28:29.526Z,7.47
2018-07-09T00:31:03.873Z,6.47
2018-07-09T00:33:38.289Z,14.00
2018-07-09T00:36:12.690Z,5.33
2018-07-09T00:38:47.013Z,4.83
2018-07-09T00:41:23.077Z,4.67
2018-07-09T00:43:57.378Z,5.33
2018-07-09T00:46:31.664Z,5.97
2018-07-09T00:49:05.914Z,5.57
2018-07-09T00:51:40.219Z,8.57
2018-07-09T00:54:14.414Z,6.00
2018-07-09T00:56:48.698Z,5.70
2018-07-09T00:59:22.935Z,5.67
2018-07-09T01:01:57.313Z,6.57
2018-07-09T01:04:31.614Z,7.83
2018-07-09T01:07:05.955Z,5.77
2018-07-09T01:09:40.242Z,5.90
2018-07-09T01:12:14.546Z,5.83
2018-07-09T01:14:48.826Z,6.50
2018-07-09T01:17:23.163Z,6.40
2018-07-09T01:19:57.485Z,6.43
2018-07-09T01:22:31.742Z,7.03
2018-07-09T01:25:06.039Z,5.83
2018-07-09T01:27:40.222Z,6.13
2018-07-09T01:30:15.755Z,9.27
2018-07-09T01:32:49.949Z,7.07
2018-07-09T01:35:24.259Z,10.03
2018-07-09T01:37:58.545Z,9.40
2018-07-09T01:40:32.846Z,7.87
2018-07-09T01:43:07.222Z,11.90
2018-07-09T01:45:41.426Z,9.87
2018-07-09T01:48:15.708Z,8.00
2018-07-09T01:50:49.855Z,6.83
2018-07-09T01:53:24.031Z,8.60
2018-07-09T01:55:58.311Z,9.73
2018-07-09T01:58:32.605Z,8.37
2018-07-09T02:01:06.914Z,10.63
2018-07-09T02:03:41.349Z,7.77
2018-07-09T02:06:15.678Z,7.37
2018-07-09T02:08:50.126Z,11.00
2018-07-09T02:11:24.345Z,6.53
2018-07-09T02:13:58.729Z,13.17
2018-07-09T02:16:33.025Z,8.00
2018-07-09T02:19:07.270Z,8.87
2018-07-09T02:21:41.678Z,7.60
2018-07-09T02:24:15.981Z,7.13
2018-07-09T02:26:50.295Z,8.70
2018-07-09T02:29:24.634Z,10.73
2018-07-09T02:31:58.919Z,10.00
2018-07-09T02:34:33.185Z,9.90
2018-07-09T02:37:07.570Z,12.57
2018-07-09T02:39:41.798Z,10.30
2018-07-09T02:42:16.109Z,9.23
2018-07-09T02:44:50.433Z,11.10
2018-07-09T02:47:24.747Z,12.37
2018-07-09T02:49:59.094Z,10.83
2018-07-09T02:52:33.546Z,9.10
2018-07-09T02:55:08.158Z,14.30
2018-07-09T02:57:42.357Z,14.27
2018-07-09T03:00:16.692Z,14.20
2018-07-09T03:02:51.017Z,10.43
2018-07-09T03:05:25.350Z,10.27
2018-07-09T03:07:59.778Z,12.50
2018-07-09T03:10:34.042Z,10.80
2018-07-09T03:13:08.732Z,12.73
2018-07-09T03:15:42.785Z,9.90
2018-07-09T03:18:17.015Z,12.47
2018-07-09T03:20:51.223Z,11.63
2018-07-09T03:23:25.239Z,12.20
2018-07-09T03:25:59.617Z,9.47
2018-07-09T03:28:33.974Z,13.00
2018-07-09T03:31:08.380Z,9.50
2018-07-09T03:33:42.671Z,9.67
2018-07-09T03:36:17.003Z,11.97
2018-07-09T03:38:51.061Z,14.07
2018-07-09T03:41:25.229Z,10.00
2018-07-09T03:43:59.546Z,11.90
2018-07-09T03:46:33.893Z,12.27
2018-07-09T03:49:08.236Z,13.40
2018-07-09T03:51:42.502Z,9.23
2018-07-09T03:54:16.835Z,11.87
2018-07-09T03:56:51.186Z,11.87
2018-07-09T03:59:25.497Z,15.90
2018-07-09T04:01:59.746Z,9.30
2018-07-09T04:04:34.069Z,12.23
2018-07-09T04:07:08.218Z,10.07
2018-07-09T04:09:42.581Z,10.90
2018-07-09T04:12:16.855Z,11.60
2018-07-09T04:14:51.282Z,10.80
2018-07-09T04:17:25.577Z,10.77
2018-07-09T04:19:59.953Z,31.67
2018-07-09T04:22:34.142Z,16.33
2018-07-09T04:25:08.587Z,10.33
2018-07-09T04:27:42.753Z,12.83
2018-07-09T04:30:17.046Z,11.53
2018-07-09T04:32:51.337Z,11.33
2018-07-09T04:35:25.938Z,15.43
2018-07-09T04:38:00.081Z,10.30
2018-07-09T04:40:34.356Z,11.10
2018-07-09T04:43:09.026Z,16.70
2018-07-09T04:45:43.338Z,13.67
2018-07-09T04:48:17.730Z,12.33
2018-07-09T04:50:52.194Z,11.90
2018-07-09T04:53:26.580Z,14.43
2018-07-09T04:56:00.954Z,12.50
2018-07-09T04:58:35.256Z,13.20
2018-07-09T05:01:09.583Z,11.07
2018-07-09T05:03:43.881Z,13.90
2018-07-09T05:06:18.116Z,12.90
2018-07-09T05:08:52.559Z,12.87
2018-07-09T05:11:26.849Z,18.80
2018-07-09T05:14:01.121Z,12.67
2018-07-09T05:16:35.461Z,11.60
2018-07-09T05:19:09.806Z,14.10
2018-07-09T05:21:44.121Z,10.50
2018-07-09T05:24:18.382Z,14.80
2018-07-09T05:26:52.556Z,13.67
2018-07-09T05:29:26.978Z,16.43
2018-07-09T05:32:01.184Z,12.97
2018-07-09T05:34:35.625Z,12.97
2018-07-09T05:37:09.922Z,14.13
2018-07-09T05:39:44.810Z,16.07
2018-07-09T05:42:19.130Z,12.67
2018-07-09T05:44:53.469Z,17.23
2018-07-09T05:47:27.688Z,10.30
2018-07-09T05:50:02.001Z,13.57
2018-07-09T05:52:36.242Z,13.40
2018-07-09T05:55:10.585Z,13.87
2018-07-09T05:57:44.842Z,11.10
2018-07-09T06:00:19.230Z,11.50
2018-07-09T06:02:53.512Z,17.10
2018-07-09T06:05:27.865Z,11.50
2018-07-09T06:08:02.114Z,11.60
2018-07-09T06:10:36.422Z,11.93
2018-07-09T06:13:10.795Z,11.47
2018-07-09T06:15:45.011Z,13.00
2018-07-09T06:18:19.701Z,10.33
2018-07-09T06:20:54.058Z,13.17
2018-07-09T06:23:28.367Z,15.70
2018-07-09T06:26:02.704Z,13.30
2018-07-09T06:28:37.072Z,12.00
2018-07-09T06:31:11.384Z,12.07
2018-07-09T06:33:45.697Z,10.60
2018-07-09T06:36:19.964Z,13.87
2018-07-09T06:38:54.277Z,11.80
2018-07-09T06:41:28.640Z,9.37
2018-07-09T06:44:02.826Z,13.00
2018-07-09T06:46:37.098Z,10.47
2018-07-09T06:49:11.289Z,12.00
2018-07-09T06:51:45.502Z,8.53
2018-07-09T06:54:19.866Z,6.30
2018-07-09T06:56:54.285Z,12.47
2018-07-09T06:59:28.241Z,8.83
2018-07-09T07:02:02.450Z,7.60
2018-07-09T07:04:36.822Z,6.73
2018-07-09T07:07:11.158Z,9.13
2018-07-09T07:09:45.593Z,10.23
2018-07-09T07:12:19.834Z,7.10
2018-07-09T07:14:54.069Z,7.07
2018-07-09T07:17:28.373Z,7.77
2018-07-09T07:20:02.919Z,8.77
2018-07-09T07:22:37.469Z,7.00
2018-07-09T07:25:11.797Z,10.63
2018-07-09T07:27:46.124Z,7.23
2018-07-09T07:30:20.387Z,6.27
2018-07-09T07:32:54.710Z,8.30
2018-07-09T07:35:29.210Z,8.50
2018-07-09T07:38:03.575Z,5.80
2018-07-09T07:40:37.855Z,6.03
2018-07-09T07:43:12.102Z,6.67
2018-07-09T07:45:46.559Z,6.33
2018-07-09T07:48:20.816Z,8.70
2018-07-09T07:50:55.181Z,7.97
2018-07-09T07:53:29.591Z,8.10
2018-07-09T07:56:03.825Z,7.57
2018-07-09T07:58:38.182Z,10.87
2018-07-09T08:01:12.511Z,8.20
2018-07-09T08:03:47.845Z,7.20
2018-07-09T08:06:22.202Z,6.83
2018-07-09T08:08:56.425Z,9.00
2018-07-09T08:11:47.728Z,6.07
2018-07-09T08:14:05.066Z,8.77
2018-07-09T08:16:39.394Z,12.63
2018-07-09T08:19:13.742Z,9.07
2018-07-09T08:21:48.074Z,9.30
2018-07-09T08:24:22.329Z,8.07
2018-07-09T08:26:56.635Z,10.07
2018-07-09T08:29:30.781Z,8.57
2018-07-09T08:32:04.990Z,9.10
2018-07-09T08:34:39.223Z,8.77
2018-07-09T08:37:13.501Z,9.57
2018-07-09T08:39:47.955Z,8.77
2018-07-09T08:42:22.206Z,9.50
2018-07-09T08:44:56.505Z,8.20
2018-07-09T08:47:30.804Z,15.40
2018-07-09T08:50:05.480Z,9.37
2018-07-09T08:52:39.654Z,11.10
2018-07-09T08:55:13.911Z,11.40
2018-07-09T08:57:48.059Z,7.40
2018-07-09T09:00:22.906Z,7.67
2018-07-09T09:02:57.187Z,10.70
2018-07-09T09:05:31.475Z,9.63
2018-07-09T09:08:05.784Z,9.57
2018-07-09T09:10:39.925Z,9.97
2018-07-09T09:13:14.153Z,7.87
2018-07-09T09:15:48.305Z,9.03
2018-07-09T09:18:22.656Z,8.73
2018-07-09T09:20:56.938Z,9.77
2018-07-09T09:23:31.267Z,10.77
2018-07-09T09:26:05.666Z,9.50
2018-07-09T09:28:39.843Z,9.83
2018-07-09T09:31:14.121Z,8.73
2018-07-09T09:33:48.442Z,15.93
2018-07-09T09:36:22.592Z,10.57
2018-07-09T09:38:56.897Z,11.63
2018-07-09T09:41:31.319Z,11.40
2018-07-09T09:44:05.634Z,8.40
2018-07-09T09:46:40.137Z,10.43
2018-07-09T09:49:14.469Z,9.47
2018-07-09T09:51:48.712Z,14.57
2018-07-09T09:54:22.962Z,11.67
2018-07-09T09:56:57.302Z,11.87
2018-07-09T09:59:31.598Z,12.77
2018-07-09T10:02:05.806Z,10.87
2018-07-09T10:04:40.083Z,10.50
2018-07-09T10:07:14.386Z,11.93
2018-07-09T10:09:48.718Z,12.67
2018-07-09T10:12:22.965Z,11.07
2018-07-09T10:14:57.394Z,10.50
2018-07-09T10:17:31.626Z,11.43
2018-07-09T10:20:05.983Z,10.17
2018-07-09T10:22:40.330Z,13.10
2018-07-09T10:25:14.623Z,11.80
2018-07-09T10:27:48.726Z,10.17
2018-07-09T10:30:22.893Z,13.37
2018-07-09T10:32:57.301Z,12.07
2018-07-09T10:35:31.494Z,17.37
2018-07-09T10:38:06.482Z,11.43
2018-07-09T10:40:40.774Z,14.33
2018-07-09T10:43:15.063Z,9.80
2018-07-09T10:45:49.330Z,10.03
2018-07-09T10:48:23.595Z,10.13
2018-07-09T10:50:57.922Z,9.70
2018-07-09T10:53:32.247Z,9.87
2018-07-09T10:56:06.511Z,10.03
2018-07-09T10:58:40.796Z,11.77
2018-07-09T11:01:15.082Z,8.57
2018-07-09T11:03:49.410Z,9.33
2018-07-09T11:06:23.691Z,8.20
2018-07-09T11:08:58.026Z,7.90
2018-07-09T11:11:32.353Z,7.13
2018-07-09T11:14:06.516Z,7.37
2018-07-09T11:16:40.846Z,8.20
2018-07-09T11:19:15.178Z,8.20
2018-07-09T11:21:49.486Z,6.60
2018-07-09T11:24:23.875Z,6.77
2018-07-09T11:26:58.243Z,5.80
2018-07-09T11:29:32.582Z,6.73
2018-07-09T11:32:06.810Z,7.40
2018-07-09T11:34:41.035Z,6.37
2018-07-09T11:37:15.356Z,6.90
2018-07-09T11:39:49.685Z,6.23
2018-07-09T11:42:23.990Z,5.97
2018-07-09T11:44:58.302Z,5.37
2018-07-09T11:47:33.195Z,4.97
2018-07-09T11:50:07.777Z,5.13
2018-07-09T11:52:42.136Z,5.17
2018-07-09T11:55:16.394Z,4.87
2018-07-09T11:57:50.682Z,6.70
2018-07-09T12:00:24.877Z,6.17
2018-07-09T12:02:59.070Z,9.27
2018-07-09T12:05:33.422Z,6.73
2018-07-09T12:08:07.754Z,6.80
2018-07-09T12:10:42.102Z,4.20
2018-07-09T12:13:16.439Z,6.17
2018-07-09T12:15:50.801Z,5.80
2018-07-09T12:18:25.078Z,6.30
2018-07-09T12:20:59.302Z,3.27
2018-07-09T12:23:33.484Z,4.00
2018-07-09T12:26:07.871Z,2.80
2018-07-09T12:28:42.111Z,3.50
2018-07-09T12:31:16.420Z,5.30
2018-07-09T12:33:50.646Z,3.20
2018-07-09T12:36:25.146Z,3.53
2018-07-09T12:38:59.339Z,3.73
2018-07-09T12:41:33.569Z,3.37
2018-07-09T12:44:07.839Z,2.33
2018-07-09T12:46:42.125Z,7.80
2018-07-09T12:49:16.413Z,2.83
2018-07-09T12:51:50.755Z,2.70
2018-07-09T12:54:25.203Z,3.20
2018-07-09T12:56:59.471Z,6.80
2018-07-09T12:59:33.754Z,4.30
2018-07-09T13:02:08.116Z,3.83
2018-07-09T13:04:42.442Z,3.33
2018-07-09T13:07:16.790Z,4.93
2018-07-09T13:09:51.046Z,4.43
2018-07-09T13:12:27.176Z,3.00
2018-07-09T13:15:01.571Z,2.53
2018-07-09T13:17:35.817Z,5.93
2018-07-09T13:20:10.151Z,2.70
2018-07-09T13:22:44.286Z,4.03
2018-07-09T13:25:18.591Z,1.83
2018-07-09T13:27:52.897Z,1.93
2018-07-09T13:30:27.171Z,6.27
2018-07-09T13:33:01.601Z,3.83
2018-07-09T13:35:36.023Z,2.97
2018-07-09T13:38:10.342Z,6.93
2018-07-09T13:40:44.622Z,3.10
2018-07-09T13:43:18.989Z,3.40
2018-07-09T13:45:53.245Z,2.20
2018-07-09T13:48:27.706Z,1.90
2018-07-09T13:51:01.782Z,1.83
2018-07-09T13:53:35.987Z,2.10
2018-07-09T13:56:10.390Z,1.90
2018-07-09T13:58:44.686Z,1.60
2018-07-09T14:01:19.015Z,4.53
2018-07-09T14:03:53.391Z,2.00
2018-07-09T14:06:27.772Z,2.47
2018-07-09T14:09:02.105Z,3.50
2018-07-09T14:11:36.410Z,4.50
2018-07-09T14:14:10.829Z,4.37
2018-07-09T14:16:45.286Z,2.70
2018-07-09T14:20:38.206Z,7.43
2018-07-09T14:23:13.628Z,2.33
2018-07-09T14:25:47.918Z,4.07
2018-07-09T14:28:22.193Z,3.03
2018-07-09T14:30:56.606Z,3.83
2018-07-09T14:33:30.854Z,5.17
2018-07-09T14:36:05.444Z,4.90
2018-07-09T14:38:39.773Z,2.77
2018-07-09T14:41:14.146Z,2.70
2018-07-09T14:43:48.412Z,2.70
2018-07-09T14:46:22.738Z,7.07
2018-07-09T14:48:56.910Z,4.80
2018-07-09T14:51:31.330Z,2.40
2018-07-09T14:54:06.174Z,4.50
2018-07-09T14:56:40.484Z,2.33
2018-07-09T14:59:14.933Z,1.43
2018-07-09T15:01:49.293Z,2.37
2018-07-09T15:04:23.598Z,1.87
2018-07-09T15:06:57.929Z,1.27
2018-07-09T15:09:32.220Z,3.33
2018-07-09T15:12:06.540Z,3.53
2018-07-09T15:14:41.047Z,5.40
2018-07-09T15:17:15.259Z,2.03
2018-07-09T15:19:49.566Z,2.47
2018-07-09T15:22:23.861Z,4.47
2018-07-09T15:24:57.897Z,2.97
2018-07-09T15:27:32.077Z,4.73
2018-07-09T15:30:07.455Z,4.80
2018-07-09T15:32:41.764Z,5.53
2018-07-09T15:35:15.941Z,2.23
2018-07-09T15:37:50.366Z,7.77
2018-07-09T15:40:24.578Z,6.77
2018-07-09T15:42:58.978Z,2.67
2018-07-09T15:45:33.276Z,6.30
2018-07-09T15:48:07.516Z,5.27
2018-07-09T15:50:41.801Z,2.73
2018-07-09T15:53:16.119Z,5.20
2018-07-09T15:55:50.294Z,2.20
2018-07-09T15:58:24.657Z,4.33
2018-07-09T16:00:58.877Z,5.07
2018-07-09T16:03:33.118Z,3.97
2018-07-09T16:06:07.318Z,4.30
2018-07-09T16:08:41.482Z,4.13
2018-07-09T16:11:15.889Z,7.07
2018-07-09T16:13:50.694Z,5.57
2018-07-09T16:16:25.153Z,5.20
2018-07-09T16:18:59.471Z,6.63
2018-07-09T16:21:33.740Z,5.90
2018-07-09T16:24:08.058Z,4.67
2018-07-09T16:26:42.467Z,4.27
2018-07-09T16:29:16.927Z,8.57
2018-07-09T16:31:51.088Z,3.43
2018-07-09T16:34:25.565Z,4.63
2018-07-09T16:36:59.922Z,3.17
2018-07-09T16:39:34.325Z,3.70
2018-07-09T16:42:08.481Z,5.63
2018-07-09T16:44:42.781Z,6.43
2018-07-09T16:47:17.146Z,5.60
2018-07-09T16:49:51.526Z,5.37
2018-07-09T16:52:25.945Z,4.60
2018-07-09T16:55:00.130Z,4.20
2018-07-09T16:57:34.478Z,2.60
2018-07-09T17:00:08.716Z,7.50
2018-07-09T17:02:43.020Z,5.03
2018-07-09T17:05:17.328Z,10.03
2018-07-09T17:07:51.594Z,6.23
2018-07-09T17:10:25.786Z,4.17
2018-07-09T17:13:00.207Z,7.03
2018-07-09T17:15:34.761Z,2.77
2018-07-09T17:18:09.063Z,9.87
2018-07-09T17:20:43.129Z,6.97
2018-07-09T17:23:17.346Z,5.17
2018-07-09T17:25:51.594Z,7.97
2018-07-09T17:28:25.894Z,7.17
2018-07-09T17:31:00.529Z,2.83
2018-07-09T17:33:34.911Z,5.17
2018-07-09T17:36:09.197Z,3.63
2018-07-09T17:38:43.407Z,5.00
2018-07-09T17:41:17.698Z,6.17
2018-07-09T17:43:52.437Z,6.20
2018-07-09T17:46:26.722Z,7.07
2018-07-09T17:49:01.517Z,8.03
2018-07-09T17:51:35.864Z,6.10
2018-07-09T17:54:10.359Z,8.40
2018-07-09T17:56:44.555Z,7.37
2018-07-09T17:59:18.901Z,6.63
2018-07-09T18:01:53.209Z,11.23
2018-07-09T18:04:27.582Z,5.33
2018-07-09T18:07:01.864Z,5.73
2018-07-09T18:09:36.203Z,6.60
2018-07-09T18:12:10.464Z,8.00
2018-07-09T18:14:44.746Z,6.93
2018-07-09T18:17:19.022Z,7.10
2018-07-09T18:19:53.171Z,4.17
2018-07-09T18:22:27.483Z,5.07
2018-07-09T18:25:01.760Z,9.70
2018-07-09T18:27:36.038Z,7.70
2018-07-09T18:30:10.394Z,6.63
2018-07-09T18:32:44.782Z,8.13
2018-07-09T18:35:18.951Z,7.30
2018-07-09T18:37:53.167Z,7.23
2018-07-09T18:40:27.498Z,6.20
2018-07-09T18:43:01.747Z,4.77
2018-07-09T18:45:36.014Z,5.57
2018-07-09T18:48:10.125Z,7.47
2018-07-09T18:50:44.514Z,12.13
2018-07-09T18:53:18.825Z,8.10
2018-07-09T18:55:53.154Z,3.57
2018-07-09T18:58:27.492Z,4.60
2018-07-09T19:01:01.634Z,5.13
2018-07-09T19:03:35.758Z,5.37
2018-07-09T19:07:20.690Z,5.80
2018-07-09T19:09:55.009Z,5.47
2018-07-09T19:12:33.605Z,5.30
2018-07-09T19:15:08.671Z,5.73
2018-07-09T19:17:54.737Z,10.33
2018-07-09T19:22:48.194Z,5.63
2018-07-09T19:25:21.483Z,6.33
2018-07-09T19:27:54.943Z,6.13
2018-07-09T19:30:28.310Z,9.40
2018-07-09T19:33:01.606Z,3.73
2018-07-09T19:35:34.899Z,9.17
2018-07-09T19:38:08.138Z,7.90
2018-07-09T19:40:41.527Z,6.40
2018-07-09T19:43:14.875Z,6.17
2018-07-09T19:45:48.454Z,8.43
2018-07-09T19:48:21.578Z,6.07
2018-07-09T19:50:54.980Z,7.50
2018-07-09T19:53:28.430Z,8.87
2018-07-09T19:56:03.030Z,8.00
2018-07-09T19:58:36.349Z,6.90
2018-07-09T20:01:09.962Z,12.43
2018-07-09T20:03:43.385Z,9.03
2018-07-09T20:06:16.888Z,10.30
2018-07-09T20:08:55.837Z,4.57
2018-07-09T20:11:34.434Z,7.23
2018-07-09T20:14:12.987Z,10.93
2018-07-09T20:16:51.518Z,8.50
2018-07-09T20:19:24.990Z,12.23
2018-07-09T20:21:58.671Z,7.37
2018-07-09T20:24:31.899Z,6.47
2018-07-09T20:27:05.446Z,8.50
2018-07-09T20:29:38.746Z,6.17
2018-07-09T20:32:11.999Z,8.27
2018-07-09T20:34:45.233Z,9.87
2018-07-09T20:37:18.959Z,7.03
2018-07-09T20:39:52.368Z,6.10
2018-07-09T20:42:25.820Z,7.23
2018-07-09T20:44:59.049Z,3.60
2018-07-09T20:47:32.531Z,5.00
2018-07-09T20:50:05.895Z,7.93
2018-07-09T20:52:39.139Z,4.13
2018-07-09T20:55:12.511Z,8.33
2018-07-09T20:57:45.823Z,7.13
2018-07-09T21:00:19.111Z,6.77
2018-07-09T21:02:52.521Z,7.60
2018-07-09T21:05:25.895Z,10.00
2018-07-09T21:07:59.677Z,8.83
2018-07-09T21:10:33.028Z,8.63
2018-07-09T21:13:06.275Z,7.13
2018-07-09T21:15:39.537Z,11.03
2018-07-09T21:18:12.946Z,7.50
2018-07-09T21:20:46.261Z,8.57
2018-07-09T21:23:19.508Z,8.27
2018-07-09T21:25:52.910Z,7.93
2018-07-09T21:28:26.198Z,4.33
2018-07-09T21:30:59.643Z,6.07
2018-07-09T21:33:33.128Z,7.17
2018-07-09T21:36:06.534Z,3.93
2018-07-09T21:38:40.656Z,14.03
2018-07-09T21:41:13.935Z,4.47
2018-07-09T21:43:47.367Z,6.77
2018-07-09T21:46:20.601Z,7.83
2018-07-09T21:48:53.879Z,4.73
2018-07-09T21:51:27.208Z,4.80
2018-07-09T21:54:00.460Z,8.23
2018-07-09T21:56:33.768Z,5.87
2018-07-09T21:59:07.214Z,6.20
2018-07-09T22:01:40.578Z,8.73
2018-07-09T22:04:13.801Z,9.57
2018-07-09T22:06:47.059Z,6.77
2018-07-09T22:09:20.309Z,4.20
2018-07-09T22:11:53.774Z,6.53
2018-07-09T22:14:27.143Z,4.90
2018-07-09T22:17:00.445Z,7.27
2018-07-09T22:19:33.753Z,8.23
2018-07-09T22:22:07.106Z,6.80
2018-07-09T22:24:40.582Z,6.80
2018-07-09T22:27:13.954Z,10.13
2018-07-09T22:29:47.235Z,6.20
2018-07-09T22:32:21.523Z,9.83
2018-07-09T22:34:55.878Z,5.63
2018-07-09T22:37:30.093Z,6.70
2018-07-09T22:40:04.501Z,5.27
2018-07-09T22:42:38.770Z,5.87
2018-07-09T22:45:13.095Z,7.23
2018-07-09T22:47:47.373Z,5.23
2018-07-09T22:50:21.661Z,7.17
2018-07-09T22:52:55.900Z,4.07
2018-07-09T22:56:12.015Z,5.80
2018-07-09T22:58:46.349Z,5.30
2018-07-09T23:01:20.654Z,7.83
2018-07-09T23:03:55.046Z,3.80
2018-07-09T23:06:29.225Z,6.80
2018-07-09T23:09:15.003Z,3.57
2018-07-09T23:16:11.686Z,7.53
2018-07-09T23:19:00.262Z,13.00
2018-07-09T23:21:48.675Z,7.63
2018-07-09T23:24:22.845Z,10.10
2018-07-09T23:26:56.437Z,5.83
2018-07-09T23:29:29.765Z,6.70
2018-07-09T23:32:03.080Z,8.23
2018-07-09T23:34:36.500Z,4.90
2018-07-09T23:37:09.826Z,5.53
2018-07-09T23:39:43.300Z,7.23
2018-07-09T23:42:16.713Z,7.77
2018-07-09T23:44:49.908Z,7.20
2018-07-09T23:47:23.302Z,4.53
2018-07-09T23:49:56.663Z,6.77
2018-07-09T23:52:29.908Z,7.63
2018-07-09T23:55:03.273Z,6.77
